AirNav   Air Wisconsin pilot careers
 
 452 users online  

5Y1 Albert J Lindberg Airport
Hessel, Michigan, USA

GOING TO HESSEL?


FAA INFORMATION EFFECTIVE 03 JANUARY 2019

Location

FAA Identifier: 5Y1
Lat/Long: 46-02-07.5450N / 084-25-03.7300W
46-02.125750N / 084-25.062167W
46.0354292 / -84.4177028
(estimated)
Elevation: 760 ft. / 232 m (estimated)
Variation: 06W (1985)
From city: 2 miles N of HESSEL, MI
Time zone: UTC -5 (UTC -4 during Daylight Saving Time)
Zip code: 49719

Airport Operations

Airport use: Open to the public
Activation date: 04/1940
Control tower: no
ARTCC: TORONTO CENTER
FSS: GREEN BAY FLIGHT SERVICE STATION
NOTAMs facility: GRB (NOTAM-D service available)
Attendance: MON-FRI 0900-1700
Wind indicator: yes
Segmented circle: yes
Lights: ACTVT PAPI RWY 09 & 27; MIRL RWY 9/27 - CTAF.
Beacon: white-green (lighted land airport)
Operates sunset to sunrise.

Airport Communications

CTAF: 122.9
WX AWOS-3PT at CIU (13 nm N): 127.575 (906-495-7134)
WX AWOS-3 at MCD (14 nm SW): 118.275 (906-847-3778)

Nearby radio navigation aids

VOR radial/distance  VOR name  Freq  Var
SSMr195/23.0SAULT STE MARIE VOR/DME112.2004W
PLNr029/26.4PELLSTON VORTAC111.8006W

Airport Services

Parking: hangars and tiedowns

Runway Information

Runway 9/27

Dimensions: 3700 x 60 ft. / 1128 x 18 m
Surface: asphalt, in fair condition
Weight bearing capacity: 
Single wheel: 30.0
Double wheel: 60.0
Runway edge lights: medium intensity
Runway edge markings: MARKINGS ARE FADED.
RUNWAY 9  RUNWAY 27
Latitude: 46-02.132333N46-02.119167N
Longitude: 084-25.499333W084-24.624333W
Elevation: 760.0 ft.760.0 ft.
Traffic pattern: leftleft
Displaced threshold: 187 ft.no
Markings: basic, in fair conditionbasic, in fair condition
Visual slope indicator: 2-light PAPI on left (4.00 degrees glide path)2-light PAPI on left (3.50 degrees glide path)
Obstructions: 42 ft. trees, 900 ft. from runway, 16:1 slope to clear
APCH RATIO 20:1 AT DSPLCD THLD.
56 ft. trees, 1320 ft. from runway, 20:1 slope to clear

Airport Ownership and Management from official FAA records

Ownership: Publicly-owned
Owner: CLARK TOWNSHIP
PO BOX 367
CEDARVILLE, MI 49719
Phone 906-484-2672
Manager: JOE BAKER
P.O. BOX 367
CEDARVILLE, MI 49719
Phone 906-430-8034
906-484-2672.

Airport Operational Statistics

Aircraft based on the field: 7
Single engine airplanes: 7
    
Aircraft operations: avg 21/month *
80% transient general aviation
20% local general aviation
* for 12-month period ending 31 December 2015

Additional Remarks

FOR FICONS CALL 906-484-2672.
FOR AV GAS CALL (616) 293-5849.

Instrument Procedures

There are no published instrument procedures at 5Y1.

Some nearby airports with instrument procedures:

KCIU - Chippewa County International Airport (13 nm N)
KMCD - Mackinac Island Airport (14 nm SW)
83D - Mackinac County Airport (16 nm SW)
6Y1 - Bois Blanc Island Airport (17 nm S)
KSLH - Cheboygan County Airport (23 nm S)
 
Loc | Ops | Rwys | IFR | FBO | Links
Com | Nav | Svcs | Stats | Notes
Area around 5Y1 (Albert J Lindberg Airport)
 
Road maps at: MapQuest Bing Google
 
Aerial photo
WARNING: Photo may not be current or correct
Aerial photo of 5Y1 (Albert J Lindberg Airport)
Photo by Antonio Simao and Eric Wyn
Taken in June 2009

Do you have a better or more recent aerial photo of Albert J Lindberg Airport that you would like to share? If so, please send us your photo.

 
Sectional chart

 
Airport distance calculator
Flying to Albert J Lindberg Airport? Find the distance to fly.

From to 5Y1

Sunrise and sunset
Times for 16-Jan-2019
 Local
(UTC-5)
 Zulu
(UTC)
Morning civil twilight07:4312:43
Sunrise08:1613:16
Sunset17:1922:19
Evening civil twilight17:5222:52

Current date and time
Zulu (UTC)  16-Jan-2019 06:58:08
Local (UTC-5)  16-Jan-2019 01:58:08
 
METAR
KCIU 
13nm N 
160636Z AUTO 31014G32KT 1 1/4SM -SN BR SCT003 BKN008 OVC025 M04/M05 A2977 RMK AO2 PK WND 30032/0627 VIS 1/2V5 CIG 007V010 PRESRR P0000 FZRANO
KMCD 
14nm SW 
160655Z AUTO 31016G23KT 7SM -SN BKN018 BKN023 OVC050 M01/M04 A2980 RMK AO2 T10151045
KSLH 
23nm S 
160655Z AUTO 29020G27KT 10SM SCT010 BKN031 OVC060 M01/M04 A2979 RMK AO2 T10151039
KANJ 
26nm N 
160610Z AUTO 30017G30KT 1SM -SN BR SCT012 BKN019 OVC028 M02/M04 A2973 RMK AO2 PK WND 30030/0604 P0001 T10221044
TAF
CYAM 
27nm N 
160607Z 1606/1614 31020G35KT 1/2SM -SHSN BLSN VV010 TEMPO 1606/1608 3SM -SN OVC025 FM160800 30020G35KT P6SM BKN025 TEMPO 1608/1610 11/2SM -SN OVC015 FM161000 32020G30KT P6SM BKN025 TEMPO 1610/1614 BKN020 BECMG 1610/1612 35015KT RMK NXT FCST BY 160800Z
KPLN 
32nm SW 
160520Z 1606/1706 28016G26KT P6SM -SHSN SCT025 OVC035 TEMPO 1606/1608 2SM -SHSN OVC025 FM160900 31017G28KT P6SM -SHSN OVC030 FM161200 33013G21KT P6SM -SHSN BKN025 FM161800 33006KT P6SM VCSH BKN025 FM162100 VRB04KT P6SM BKN025 FM170500 VRB03KT P6SM BKN150
NOTAMs
Click for the latest NOTAMs
NOTAMs are issued by the DoD/FAA and will open in a separate window not controlled by AirNav.

 

 
 

Would you like to see your business listed on this page?

 If your business provides an interesting product or service to pilots, flight crews, aircraft, or users of the Albert J Lindberg Airport, you should consider listing it here.  To start the listing process, click on the button below
 
Add a business
 

Other Pages about Albert J Lindberg Airport

Page from the Michigan Airport Directory (PDF)
 
Update a link
 
Copyright © AirNav, LLC. All rights reserved. Privacy Policy  Contact